Forest Hills, Michigan
Current Conditions -  °F | °C
As of 4:53 AM on Friday 31 Oct 2014 (Local Time) from KGRR Reporting Station
Light Rain Light Rain  
Wind Chill: 38°   Ceiling: 3800
Heat Index: 43°   Visibility: 8mi
Dew Point: 42°   Wind: 9mph
Humidity: 97%   Direction: 300°WNW
Pressure: 29.93"   Gusts: NA
Location:  42.9453°N, 85.6127°W
Report Text: KGRR 310853Z AUTO 30008KT 8SM -RA FEW014 SCT025 OVC038 06/06 A2993 RMK AO2 SLP140 P0003 60006 T00610056 56007
Loading
Personal Weather Stations






























Interactive Weather Map
Tropical Storm Tracking
New forecast layout! Learn more

10-Day Weather Forecast

Advertisements
Track Severe Weather on mobile